VEJS/IXW METAR and TAF weather

Enter ICAO airport designator
Station Type Date Time Source
VEJS METAR 2022/06/30 11:00 UTC NOAA

VEJS 301100Z 13006KT 5000 HZ SCT020 FEW030CB BKN100 26/26 Q0998


Station Type Date Time Source
VEJS Decoded METAR 2022/06/30 11:00 UTC NOAA

Jamshedpur, India (VEJS) 22-49N 086-11E 142M
Jun 30, 2022 - 07:00 AM EDT / 2022.06.30 1100 UTC
Wind: from the SE (130 degrees) at 7 MPH (6 KT):0
Visibility: 3 mile(s):0
Sky conditions: mostly cloudy
Weather: haze; Cumulonimbus clouds observed
Temperature: 78 F (26 C)
Dew Point: 78 F (26 C)
Relative Humidity: 100%
Pressure (altimeter): 29.47 in. Hg (0998 hPa)
ob: VEJS 301100Z 13006KT 5000 HZ SCT020 FEW030CB BKN100 26/26 Q0998
cycle: 11

Station Type Date Time Source
VEJS TAF 2009/11/01 09:00 UTC NOAA

TAF VEJS 010900Z 0112/0121 36004KT 2500 HZ FEW020 SCT025 SCT100
BECMG 0116/0118 00000KT 2000 HZ FEW018 SCT
BECMG 0119/0121 00000KT 1600 BR

Example: see airport list